sensor_id;sensor_type;location;lat;lon;timestamp;temperature;humidity
23744;DHT22;12052;53.478;10.182;2023-10-19T00:00:31;7.50;99.90
23744;DHT22;12052;53.478;10.182;2023-10-19T00:02:59;7.60;99.90
23744;DHT22;12052;53.478;10.182;2023-10-19T00:05:28;7.50;99.90
23744;DHT22;12052;53.478;10.182;2023-10-19T00:07:56;7.50;99.90
23744;DHT22;12052;53.478;10.182;2023-10-19T00:10:23;7.50;99.90
23744;DHT22;12052;53.478;10.182;2023-10-19T00:12:51;7.50;99.90
23744;DHT22;12052;53.478;10.182;2023-10-19T00:15:22;7.50;99.90
23744;DHT22;12052;53.478;10.182;2023-10-19T00:17:49;7.50;99.90
23744;DHT22;12052;53.478;10.182;2023-10-19T00:20:18;7.50;99.90
23744;DHT22;12052;53.478;10.182;2023-10-19T00:23:00;7.50;99.90
23744;DHT22;12052;53.478;10.182;2023-10-19T00:25:30;7.50;99.90
23744;DHT22;12052;53.478;10.182;2023-10-19T00:27:57;7.50;99.90
23744;DHT22;12052;53.478;10.182;2023-10-19T00:30:25;7.50;99.90
23744;DHT22;12052;53.478;10.182;2023-10-19T00:32:56;7.50;99.90
23744;DHT22;12052;53.478;10.182;2023-10-19T00:35:22;7.50;99.90
23744;DHT22;12052;53.478;10.182;2023-10-19T00:37:59;7.50;99.90
23744;DHT22;12052;53.478;10.182;2023-10-19T00:40:52;7.50;99.90
23744;DHT22;12052;53.478;10.182;2023-10-19T00:43:35;7.50;99.90
23744;DHT22;12052;53.478;10.182;2023-10-19T00:46:14;7.50;99.90
23744;DHT22;12052;53.478;10.182;2023-10-19T00:48:55;7.50;99.90
23744;DHT22;12052;53.478;10.182;2023-10-19T00:51:41;7.50;99.90
23744;DHT22;12052;53.478;10.182;2023-10-19T00:54:15;7.50;99.90
23744;DHT22;12052;53.478;10.182;2023-10-19T00:56:47;7.50;99.90
23744;DHT22;12052;53.478;10.182;2023-10-19T00:59:20;7.50;99.90
23744;DHT22;12052;53.478;10.182;2023-10-19T01:02:01;7.50;99.90
23744;DHT22;12052;53.478;10.182;2023-10-19T01:04:51;7.50;99.90
23744;DHT22;12052;53.478;10.182;2023-10-19T01:07:30;7.50;99.90
23744;DHT22;12052;53.478;10.182;2023-10-19T01:09:58;7.50;99.90
23744;DHT22;12052;53.478;10.182;2023-10-19T01:12:24;7.50;99.90
23744;DHT22;12052;53.478;10.182;2023-10-19T01:17:50;7.50;99.90
23744;DHT22;12052;53.478;10.182;2023-10-19T01:20:21;7.50;99.90
23744;DHT22;12052;53.478;10.182;2023-10-19T01:23:16;7.50;99.90
23744;DHT22;12052;53.478;10.182;2023-10-19T01:28:22;7.50;99.90
23744;DHT22;12052;53.478;10.182;2023-10-19T01:30:54;7.50;99.90
23744;DHT22;12052;53.478;10.182;2023-10-19T01:33:21;7.50;99.90
23744;DHT22;12052;53.478;10.182;2023-10-19T01:35:47;7.50;99.90
23744;DHT22;12052;53.478;10.182;2023-10-19T01:38:32;7.50;99.90
23744;DHT22;12052;53.478;10.182;2023-10-19T01:41:02;7.50;99.90
23744;DHT22;12052;53.478;10.182;2023-10-19T01:43:31;7.40;99.90
23744;DHT22;12052;53.478;10.182;2023-10-19T01:46:00;7.40;99.90
23744;DHT22;12052;53.478;10.182;2023-10-19T01:48:39;7.40;99.90
23744;DHT22;12052;53.478;10.182;2023-10-19T01:51:07;7.50;99.90
23744;DHT22;12052;53.478;10.182;2023-10-19T01:53:36;7.50;99.90
23744;DHT22;12052;53.478;10.182;2023-10-19T01:56:05;7.40;99.90
23744;DHT22;12052;53.478;10.182;2023-10-19T01:58:37;7.50;99.90
23744;DHT22;12052;53.478;10.182;2023-10-19T02:01:04;7.50;99.90
23744;DHT22;12052;53.478;10.182;2023-10-19T02:03:58;7.60;99.90
23744;DHT22;12052;53.478;10.182;2023-10-19T02:06:26;7.50;99.90
23744;DHT22;12052;53.478;10.182;2023-10-19T02:08:58;7.50;99.90
23744;DHT22;12052;53.478;10.182;2023-10-19T02:11:34;7.50;99.90
23744;DHT22;12052;53.478;10.182;2023-10-19T02:14:03;7.50;99.90
23744;DHT22;12052;53.478;10.182;2023-10-19T02:16:33;7.50;99.90
23744;DHT22;12052;53.478;10.182;2023-10-19T02:18:59;7.60;99.90
23744;DHT22;12052;53.478;10.182;2023-10-19T02:21:26;7.50;99.90
23744;DHT22;12052;53.478;10.182;2023-10-19T02:23:56;7.50;99.90
23744;DHT22;12052;53.478;10.182;2023-10-19T02:26:23;7.50;99.90
23744;DHT22;12052;53.478;10.182;2023-10-19T02:28:51;7.50;99.90
23744;DHT22;12052;53.478;10.182;2023-10-19T02:31:17;7.50;99.90
23744;DHT22;12052;53.478;10.182;2023-10-19T02:33:51;7.50;99.90
23744;DHT22;12052;53.478;10.182;2023-10-19T02:36:28;7.60;99.90
23744;DHT22;12052;53.478;10.182;2023-10-19T02:39:02;7.50;99.90
23744;DHT22;12052;53.478;10.182;2023-10-19T02:41:42;7.60;99.90
23744;DHT22;12052;53.478;10.182;2023-10-19T02:44:15;7.60;99.90
23744;DHT22;12052;53.478;10.182;2023-10-19T02:46:49;7.60;99.90
23744;DHT22;12052;53.478;10.182;2023-10-19T02:49:16;7.60;99.90
23744;DHT22;12052;53.478;10.182;2023-10-19T02:51:49;7.60;99.90
23744;DHT22;12052;53.478;10.182;2023-10-19T02:54:17;7.60;99.90
23744;DHT22;12052;53.478;10.182;2023-10-19T02:56:46;7.60;99.90
23744;DHT22;12052;53.478;10.182;2023-10-19T02:59:17;7.60;99.90
23744;DHT22;12052;53.478;10.182;2023-10-19T03:01:48;7.60;99.90
23744;DHT22;12052;53.478;10.182;2023-10-19T03:04:14;7.60;99.90
23744;DHT22;12052;53.478;10.182;2023-10-19T03:06:41;7.60;99.90
23744;DHT22;12052;53.478;10.182;2023-10-19T03:09:08;7.60;99.90
23744;DHT22;12052;53.478;10.182;2023-10-19T03:11:54;7.60;99.90
23744;DHT22;12052;53.478;10.182;2023-10-19T03:14:25;7.60;99.90
23744;DHT22;12052;53.478;10.182;2023-10-19T03:16:51;7.60;99.90
23744;DHT22;12052;53.478;10.182;2023-10-19T03:19:17;7.60;99.90
23744;DHT22;12052;53.478;10.182;2023-10-19T03:21:42;7.50;99.90
23744;DHT22;12052;53.478;10.182;2023-10-19T03:24:10;7.40;99.90
23744;DHT22;12052;53.478;10.182;2023-10-19T03:26:49;7.40;99.90
23744;DHT22;12052;53.478;10.182;2023-10-19T03:29:15;7.30;99.90
23744;DHT22;12052;53.478;10.182;2023-10-19T03:31:43;7.30;99.90
23744;DHT22;12052;53.478;10.182;2023-10-19T03:34:12;7.20;99.90
23744;DHT22;12052;53.478;10.182;2023-10-19T03:36:39;7.20;99.90
23744;DHT22;12052;53.478;10.182;2023-10-19T03:39:05;7.10;99.90
23744;DHT22;12052;53.478;10.182;2023-10-19T03:41:41;7.10;99.90
23744;DHT22;12052;53.478;10.182;2023-10-19T03:44:10;7.00;99.90
23744;DHT22;12052;53.478;10.182;2023-10-19T03:46:50;7.00;99.90
23744;DHT22;12052;53.478;10.182;2023-10-19T03:49:22;6.90;99.90
23744;DHT22;12052;53.478;10.182;2023-10-19T03:51:49;6.90;99.90
23744;DHT22;12052;53.478;10.182;2023-10-19T03:54:27;6.80;99.90
23744;DHT22;12052;53.478;10.182;2023-10-19T03:56:54;6.80;99.90
23744;DHT22;12052;53.478;10.182;2023-10-19T03:59:22;6.80;99.90
23744;DHT22;12052;53.478;10.182;2023-10-19T04:01:49;6.70;99.90
23744;DHT22;12052;53.478;10.182;2023-10-19T04:04:14;6.70;99.90
23744;DHT22;12052;53.478;10.182;2023-10-19T04:06:42;6.70;99.90
23744;DHT22;12052;53.478;10.182;2023-10-19T04:09:13;6.60;99.90
23744;DHT22;12052;53.478;10.182;2023-10-19T04:11:42;6.60;99.90
23744;DHT22;12052;53.478;10.182;2023-10-19T04:14:14;6.60;99.90
23744;DHT22;12052;53.478;10.182;2023-10-19T04:16:43;6.60;99.90
23744;DHT22;12052;53.478;10.182;2023-10-19T04:19:13;6.60;99.90
23744;DHT22;12052;53.478;10.182;2023-10-19T04:21:42;6.50;99.90
23744;DHT22;12052;53.478;10.182;2023-10-19T04:24:12;6.50;99.90
23744;DHT22;12052;53.478;10.182;2023-10-19T04:26:39;6.50;99.90
23744;DHT22;12052;53.478;10.182;2023-10-19T04:29:06;6.50;99.90
23744;DHT22;12052;53.478;10.182;2023-10-19T04:31:43;6.50;99.90
23744;DHT22;12052;53.478;10.182;2023-10-19T04:34:18;6.40;99.90
23744;DHT22;12052;53.478;10.182;2023-10-19T04:36:47;6.40;99.90
23744;DHT22;12052;53.478;10.182;2023-10-19T04:39:12;6.40;99.90
23744;DHT22;12052;53.478;10.182;2023-10-19T04:41:42;6.40;99.90
23744;DHT22;12052;53.478;10.182;2023-10-19T04:44:09;6.40;99.90
23744;DHT22;12052;53.478;10.182;2023-10-19T04:46:36;6.40;99.90
23744;DHT22;12052;53.478;10.182;2023-10-19T04:49:02;6.30;99.90
23744;DHT22;12052;53.478;10.182;2023-10-19T04:51:29;6.30;99.90
23744;DHT22;12052;53.478;10.182;2023-10-19T04:53:55;6.30;99.90
23744;DHT22;12052;53.478;10.182;2023-10-19T04:56:21;6.30;99.90
23744;DHT22;12052;53.478;10.182;2023-10-19T04:58:47;6.30;99.90
23744;DHT22;12052;53.478;10.182;2023-10-19T05:01:13;6.30;99.90
23744;DHT22;12052;53.478;10.182;2023-10-19T05:03:40;6.30;99.90
23744;DHT22;12052;53.478;10.182;2023-10-19T05:06:06;6.30;99.90
23744;DHT22;12052;53.478;10.182;2023-10-19T05:08:31;6.30;99.90
23744;DHT22;12052;53.478;10.182;2023-10-19T05:10:58;6.30;99.90
23744;DHT22;12052;53.478;10.182;2023-10-19T05:13:27;6.30;99.90
23744;DHT22;12052;53.478;10.182;2023-10-19T05:15:54;6.30;99.90
23744;DHT22;12052;53.478;10.182;2023-10-19T05:18:22;6.20;99.90
23744;DHT22;12052;53.478;10.182;2023-10-19T05:20:49;6.30;99.90
23744;DHT22;12052;53.478;10.182;2023-10-19T05:23:16;6.30;99.90
23744;DHT22;12052;53.478;10.182;2023-10-19T05:25:41;6.30;99.90
23744;DHT22;12052;53.478;10.182;2023-10-19T05:28:07;6.20;99.90
23744;DHT22;12052;53.478;10.182;2023-10-19T05:30:34;6.30;99.90
23744;DHT22;12052;53.478;10.182;2023-10-19T05:33:00;6.30;99.90
23744;DHT22;12052;53.478;10.182;2023-10-19T05:35:29;6.30;99.90
23744;DHT22;12052;53.478;10.182;2023-10-19T05:37:56;6.30;99.90
23744;DHT22;12052;53.478;10.182;2023-10-19T05:40:24;6.30;99.90
23744;DHT22;12052;53.478;10.182;2023-10-19T05:42:55;6.30;99.90
23744;DHT22;12052;53.478;10.182;2023-10-19T05:45:20;6.30;99.90
23744;DHT22;12052;53.478;10.182;2023-10-19T05:47:46;6.30;99.90
23744;DHT22;12052;53.478;10.182;2023-10-19T05:50:12;6.20;99.90
23744;DHT22;12052;53.478;10.182;2023-10-19T05:52:41;6.30;99.90
23744;DHT22;12052;53.478;10.182;2023-10-19T05:55:08;6.30;99.90
23744;DHT22;12052;53.478;10.182;2023-10-19T05:57:35;6.30;99.90
23744;DHT22;12052;53.478;10.182;2023-10-19T06:00:01;6.20;99.90
23744;DHT22;12052;53.478;10.182;2023-10-19T06:02:27;6.30;99.90
23744;DHT22;12052;53.478;10.182;2023-10-19T06:04:52;6.30;99.90
23744;DHT22;12052;53.478;10.182;2023-10-19T06:07:18;6.30;99.90
23744;DHT22;12052;53.478;10.182;2023-10-19T06:09:43;6.30;99.90
23744;DHT22;12052;53.478;10.182;2023-10-19T06:12:09;6.30;99.90
23744;DHT22;12052;53.478;10.182;2023-10-19T06:14:35;6.30;99.90
23744;DHT22;12052;53.478;10.182;2023-10-19T06:17:00;6.30;99.90
23744;DHT22;12052;53.478;10.182;2023-10-19T06:19:27;6.30;99.90
23744;DHT22;12052;53.478;10.182;2023-10-19T06:21:52;6.30;99.90
23744;DHT22;12052;53.478;10.182;2023-10-19T06:24:18;6.30;99.90
23744;DHT22;12052;53.478;10.182;2023-10-19T06:26:44;6.30;99.90
23744;DHT22;12052;53.478;10.182;2023-10-19T06:29:10;6.30;99.90
23744;DHT22;12052;53.478;10.182;2023-10-19T06:31:36;6.30;99.90
23744;DHT22;12052;53.478;10.182;2023-10-19T06:34:02;6.30;99.90
23744;DHT22;12052;53.478;10.182;2023-10-19T06:36:28;6.40;99.90
23744;DHT22;12052;53.478;10.182;2023-10-19T06:38:57;6.30;99.90
23744;DHT22;12052;53.478;10.182;2023-10-19T06:41:22;6.40;99.90
23744;DHT22;12052;53.478;10.182;2023-10-19T06:43:49;6.40;99.90
23744;DHT22;12052;53.478;10.182;2023-10-19T06:46:15;6.40;99.90
23744;DHT22;12052;53.478;10.182;2023-10-19T06:48:41;6.40;99.90
23744;DHT22;12052;53.478;10.182;2023-10-19T06:51:07;6.40;99.90
23744;DHT22;12052;53.478;10.182;2023-10-19T06:53:33;6.40;99.90
23744;DHT22;12052;53.478;10.182;2023-10-19T06:56:00;6.40;99.90
23744;DHT22;12052;53.478;10.182;2023-10-19T06:58:25;6.40;99.90
23744;DHT22;12052;53.478;10.182;2023-10-19T07:00:54;6.40;99.90
23744;DHT22;12052;53.478;10.182;2023-10-19T07:03:25;6.50;99.90
23744;DHT22;12052;53.478;10.182;2023-10-19T07:05:53;6.50;99.90
23744;DHT22;12052;53.478;10.182;2023-10-19T07:08:19;6.50;99.90
23744;DHT22;12052;53.478;10.182;2023-10-19T07:10:46;6.50;99.90
23744;DHT22;12052;53.478;10.182;2023-10-19T07:13:12;6.50;99.90
23744;DHT22;12052;53.478;10.182;2023-10-19T07:15:38;6.50;99.90
23744;DHT22;12052;53.478;10.182;2023-10-19T07:18:07;6.50;99.90
23744;DHT22;12052;53.478;10.182;2023-10-19T07:20:32;6.50;99.90
23744;DHT22;12052;53.478;10.182;2023-10-19T07:23:02;6.50;99.90
23744;DHT22;12052;53.478;10.182;2023-10-19T07:25:48;6.50;99.90
23744;DHT22;12052;53.478;10.182;2023-10-19T07:28:18;6.50;99.90
23744;DHT22;12052;53.478;10.182;2023-10-19T07:30:45;6.50;99.90
23744;DHT22;12052;53.478;10.182;2023-10-19T07:33:16;6.50;99.90
23744;DHT22;12052;53.478;10.182;2023-10-19T07:35:43;6.50;99.90
23744;DHT22;12052;53.478;10.182;2023-10-19T07:38:12;6.50;99.90
23744;DHT22;12052;53.478;10.182;2023-10-19T07:40:38;6.50;99.90
23744;DHT22;12052;53.478;10.182;2023-10-19T07:43:04;6.50;99.90
23744;DHT22;12052;53.478;10.182;2023-10-19T07:45:30;6.50;99.90
23744;DHT22;12052;53.478;10.182;2023-10-19T07:47:57;6.60;99.90
23744;DHT22;12052;53.478;10.182;2023-10-19T07:50:23;6.60;99.90
23744;DHT22;12052;53.478;10.182;2023-10-19T07:52:51;6.60;99.90
23744;DHT22;12052;53.478;10.182;2023-10-19T07:55:18;6.60;99.90
23744;DHT22;12052;53.478;10.182;2023-10-19T07:57:44;6.60;99.90
23744;DHT22;12052;53.478;10.182;2023-10-19T08:00:11;6.60;99.90
23744;DHT22;12052;53.478;10.182;2023-10-19T08:02:39;6.60;99.90
23744;DHT22;12052;53.478;10.182;2023-10-19T08:05:11;6.60;99.90
23744;DHT22;12052;53.478;10.182;2023-10-19T08:07:37;6.60;99.90
23744;DHT22;12052;53.478;10.182;2023-10-19T08:10:06;6.60;99.90
23744;DHT22;12052;53.478;10.182;2023-10-19T08:12:32;6.60;99.90
23744;DHT22;12052;53.478;10.182;2023-10-19T08:15:01;6.70;99.90
23744;DHT22;12052;53.478;10.182;2023-10-19T08:17:27;6.70;99.90
23744;DHT22;12052;53.478;10.182;2023-10-19T08:19:53;6.60;99.90
23744;DHT22;12052;53.478;10.182;2023-10-19T08:22:19;6.70;99.90
23744;DHT22;12052;53.478;10.182;2023-10-19T08:24:44;6.80;99.90
23744;DHT22;12052;53.478;10.182;2023-10-19T08:27:12;6.70;99.90
23744;DHT22;12052;53.478;10.182;2023-10-19T08:29:40;6.70;99.90
23744;DHT22;12052;53.478;10.182;2023-10-19T08:32:07;6.70;99.90
23744;DHT22;12052;53.478;10.182;2023-10-19T08:37:56;6.70;99.90
23744;DHT22;12052;53.478;10.182;2023-10-19T08:40:26;6.70;99.90
23744;DHT22;12052;53.478;10.182;2023-10-19T08:42:53;6.60;99.90
23744;DHT22;12052;53.478;10.182;2023-10-19T08:45:21;6.60;99.90
23744;DHT22;12052;53.478;10.182;2023-10-19T08:50:34;6.60;99.90
23744;DHT22;12052;53.478;10.182;2023-10-19T08:53:30;6.70;99.90
23744;DHT22;12052;53.478;10.182;2023-10-19T08:58:43;6.70;99.90
23744;DHT22;12052;53.478;10.182;2023-10-19T09:01:12;6.70;99.90
23744;DHT22;12052;53.478;10.182;2023-10-19T09:03:48;6.80;99.90
23744;DHT22;12052;53.478;10.182;2023-10-19T09:06:13;6.80;99.90
23744;DHT22;12052;53.478;10.182;2023-10-19T09:08:42;6.80;99.90
23744;DHT22;12052;53.478;10.182;2023-10-19T09:11:13;6.90;99.90
23744;DHT22;12052;53.478;10.182;2023-10-19T09:13:51;6.90;99.90
23744;DHT22;12052;53.478;10.182;2023-10-19T09:16:19;6.90;99.90
23744;DHT22;12052;53.478;10.182;2023-10-19T09:18:54;6.90;99.90
23744;DHT22;12052;53.478;10.182;2023-10-19T09:21:23;6.90;99.90
23744;DHT22;12052;53.478;10.182;2023-10-19T09:24:11;6.90;99.90
23744;DHT22;12052;53.478;10.182;2023-10-19T09:26:42;6.90;99.90
23744;DHT22;12052;53.478;10.182;2023-10-19T09:35:55;6.80;99.90
23744;DHT22;12052;53.478;10.182;2023-10-19T09:38:28;6.90;99.90
23744;DHT22;12052;53.478;10.182;2023-10-19T09:41:39;6.80;99.90
23744;DHT22;12052;53.478;10.182;2023-10-19T09:44:08;6.80;99.90
23744;DHT22;12052;53.478;10.182;2023-10-19T09:46:39;6.90;99.90
23744;DHT22;12052;53.478;10.182;2023-10-19T09:49:05;6.80;99.90
23744;DHT22;12052;53.478;10.182;2023-10-19T09:51:33;6.80;99.90
23744;DHT22;12052;53.478;10.182;2023-10-19T09:54:37;6.90;99.90
23744;DHT22;12052;53.478;10.182;2023-10-19T09:57:02;6.80;99.90
23744;DHT22;12052;53.478;10.182;2023-10-19T09:59:41;6.80;99.90
23744;DHT22;12052;53.478;10.182;2023-10-19T10:02:11;6.90;99.90
23744;DHT22;12052;53.478;10.182;2023-10-19T10:04:41;6.80;99.90
23744;DHT22;12052;53.478;10.182;2023-10-19T10:07:09;6.90;99.90
23744;DHT22;12052;53.478;10.182;2023-10-19T10:09:44;6.90;99.90
23744;DHT22;12052;53.478;10.182;2023-10-19T10:12:21;6.90;99.90
23744;DHT22;12052;53.478;10.182;2023-10-19T10:15:00;6.90;99.90
23744;DHT22;12052;53.478;10.182;2023-10-19T10:17:59;6.90;99.90
23744;DHT22;12052;53.478;10.182;2023-10-19T10:20:37;6.90;99.90
23744;DHT22;12052;53.478;10.182;2023-10-19T10:23:18;6.80;99.90
23744;DHT22;12052;53.478;10.182;2023-10-19T10:25:50;6.90;99.90
23744;DHT22;12052;53.478;10.182;2023-10-19T10:29:12;6.90;99.90
23744;DHT22;12052;53.478;10.182;2023-10-19T10:31:49;6.90;99.90
23744;DHT22;12052;53.478;10.182;2023-10-19T10:37:10;6.80;99.90
23744;DHT22;12052;53.478;10.182;2023-10-19T10:39:39;6.80;99.90
23744;DHT22;12052;53.478;10.182;2023-10-19T10:42:08;6.80;99.90
23744;DHT22;12052;53.478;10.182;2023-10-19T10:44:50;6.80;99.90
23744;DHT22;12052;53.478;10.182;2023-10-19T10:47:28;6.80;99.90
23744;DHT22;12052;53.478;10.182;2023-10-19T10:50:05;6.80;99.90
23744;DHT22;12052;53.478;10.182;2023-10-19T10:52:54;6.80;99.90
23744;DHT22;12052;53.478;10.182;2023-10-19T10:55:34;6.90;99.90
23744;DHT22;12052;53.478;10.182;2023-10-19T11:01:30;6.90;99.90
23744;DHT22;12052;53.478;10.182;2023-10-19T11:04:11;7.00;99.90
23744;DHT22;12052;53.478;10.182;2023-10-19T11:06:55;6.90;99.90
23744;DHT22;12052;53.478;10.182;2023-10-19T11:09:27;6.90;99.90
23744;DHT22;12052;53.478;10.182;2023-10-19T11:12:23;6.90;99.90
23744;DHT22;12052;53.478;10.182;2023-10-19T11:15:49;6.90;99.90
23744;DHT22;12052;53.478;10.182;2023-10-19T11:18:37;6.90;99.90
23744;DHT22;12052;53.478;10.182;2023-10-19T11:21:57;7.00;99.90
23744;DHT22;12052;53.478;10.182;2023-10-19T11:25:23;7.00;99.90
23744;DHT22;12052;53.478;10.182;2023-10-19T11:28:01;7.00;99.90
23744;DHT22;12052;53.478;10.182;2023-10-19T11:33:45;7.00;99.90
23744;DHT22;12052;53.478;10.182;2023-10-19T11:36:21;7.10;99.90
23744;DHT22;12052;53.478;10.182;2023-10-19T11:38:53;7.00;99.90
23744;DHT22;12052;53.478;10.182;2023-10-19T11:47:50;7.10;99.90
23744;DHT22;12052;53.478;10.182;2023-10-19T11:50:32;7.10;99.90
23744;DHT22;12052;53.478;10.182;2023-10-19T11:53:25;7.10;99.90
23744;DHT22;12052;53.478;10.182;2023-10-19T11:56:20;7.10;99.90
23744;DHT22;12052;53.478;10.182;2023-10-19T11:59:29;7.10;99.90
23744;DHT22;12052;53.478;10.182;2023-10-19T12:02:01;7.10;99.90
23744;DHT22;12052;53.478;10.182;2023-10-19T12:04:35;7.00;99.90
23744;DHT22;12052;53.478;10.182;2023-10-19T12:11:00;7.10;99.90
23744;DHT22;12052;53.478;10.182;2023-10-19T12:17:13;7.20;99.90
23744;DHT22;12052;53.478;10.182;2023-10-19T12:23:30;7.20;99.90
23744;DHT22;12052;53.478;10.182;2023-10-19T12:29:59;7.30;99.90
23744;DHT22;12052;53.478;10.182;2023-10-19T12:43:05;7.30;99.90
23744;DHT22;12052;53.478;10.182;2023-10-19T13:07:07;7.30;99.90
23744;DHT22;12052;53.478;10.182;2023-10-19T13:26:15;7.30;99.90
23744;DHT22;12052;53.478;10.182;2023-10-19T13:28:41;7.30;99.90
23744;DHT22;12052;53.478;10.182;2023-10-19T13:31:29;7.30;99.90
23744;DHT22;12052;53.478;10.182;2023-10-19T13:38:10;7.30;99.90
23744;DHT22;12052;53.478;10.182;2023-10-19T13:54:47;7.40;99.90
23744;DHT22;12052;53.478;10.182;2023-10-19T13:57:15;7.50;99.90
23744;DHT22;12052;53.478;10.182;2023-10-19T13:59:42;7.50;99.90
23744;DHT22;12052;53.478;10.182;2023-10-19T14:02:30;7.50;99.90
23744;DHT22;12052;53.478;10.182;2023-10-19T14:05:14;7.50;99.90
23744;DHT22;12052;53.478;10.182;2023-10-19T14:08:03;7.60;99.90
23744;DHT22;12052;53.478;10.182;2023-10-19T14:13:57;7.60;99.90
23744;DHT22;12052;53.478;10.182;2023-10-19T14:16:27;7.60;99.90
23744;DHT22;12052;53.478;10.182;2023-10-19T14:18:56;7.60;99.90
23744;DHT22;12052;53.478;10.182;2023-10-19T14:21:26;7.60;99.90
23744;DHT22;12052;53.478;10.182;2023-10-19T14:24:07;7.60;99.90
23744;DHT22;12052;53.478;10.182;2023-10-19T14:26:41;7.70;99.90
23744;DHT22;12052;53.478;10.182;2023-10-19T14:29:35;7.60;99.90
23744;DHT22;12052;53.478;10.182;2023-10-19T14:32:10;7.60;99.90
23744;DHT22;12052;53.478;10.182;2023-10-19T14:34:52;7.70;99.90
23744;DHT22;12052;53.478;10.182;2023-10-19T14:37:49;7.70;99.90
23744;DHT22;12052;53.478;10.182;2023-10-19T14:45:47;7.70;99.90
23744;DHT22;12052;53.478;10.182;2023-10-19T14:48:18;7.70;99.90
23744;DHT22;12052;53.478;10.182;2023-10-19T14:50:46;7.70;99.90
23744;DHT22;12052;53.478;10.182;2023-10-19T14:53:12;7.70;99.90
23744;DHT22;12052;53.478;10.182;2023-10-19T14:55:43;7.70;99.90
23744;DHT22;12052;53.478;10.182;2023-10-19T14:58:19;7.70;99.90
23744;DHT22;12052;53.478;10.182;2023-10-19T15:03:20;7.70;99.90
23744;DHT22;12052;53.478;10.182;2023-10-19T15:05:53;7.70;99.90
23744;DHT22;12052;53.478;10.182;2023-10-19T15:08:24;7.60;99.90
23744;DHT22;12052;53.478;10.182;2023-10-19T15:10:52;7.70;99.90
23744;DHT22;12052;53.478;10.182;2023-10-19T15:13:19;7.70;99.90
23744;DHT22;12052;53.478;10.182;2023-10-19T15:15:46;7.70;99.90
23744;DHT22;12052;53.478;10.182;2023-10-19T15:18:14;7.60;99.90
23744;DHT22;12052;53.478;10.182;2023-10-19T15:20:43;7.60;99.90
23744;DHT22;12052;53.478;10.182;2023-10-19T15:23:09;7.60;99.90
23744;DHT22;12052;53.478;10.182;2023-10-19T15:25:37;7.60;99.90
23744;DHT22;12052;53.478;10.182;2023-10-19T15:28:08;7.60;99.90
23744;DHT22;12052;53.478;10.182;2023-10-19T15:30:35;7.60;99.90
23744;DHT22;12052;53.478;10.182;2023-10-19T15:36:28;7.50;99.90
23744;DHT22;12052;53.478;10.182;2023-10-19T15:38:59;7.50;99.90
23744;DHT22;12052;53.478;10.182;2023-10-19T15:41:25;7.50;99.90
23744;DHT22;12052;53.478;10.182;2023-10-19T15:46:29;7.50;99.90
23744;DHT22;12052;53.478;10.182;2023-10-19T15:48:57;7.50;99.90
23744;DHT22;12052;53.478;10.182;2023-10-19T15:51:23;7.50;99.90
23744;DHT22;12052;53.478;10.182;2023-10-19T15:53:55;7.50;99.90
23744;DHT22;12052;53.478;10.182;2023-10-19T16:01:32;7.50;99.90
23744;DHT22;12052;53.478;10.182;2023-10-19T16:03:58;7.50;99.90
23744;DHT22;12052;53.478;10.182;2023-10-19T16:06:23;7.50;99.90
23744;DHT22;12052;53.478;10.182;2023-10-19T16:15:40;7.40;99.90
23744;DHT22;12052;53.478;10.182;2023-10-19T16:18:07;7.40;99.90
23744;DHT22;12052;53.478;10.182;2023-10-19T16:20:33;7.40;99.90
23744;DHT22;12052;53.478;10.182;2023-10-19T16:23:07;7.40;99.90
23744;DHT22;12052;53.478;10.182;2023-10-19T16:25:33;7.40;99.90
23744;DHT22;12052;53.478;10.182;2023-10-19T16:28:01;7.40;99.90
23744;DHT22;12052;53.478;10.182;2023-10-19T16:30:29;7.40;99.90
23744;DHT22;12052;53.478;10.182;2023-10-19T16:32:58;7.40;99.90
23744;DHT22;12052;53.478;10.182;2023-10-19T16:35:24;7.40;99.90
23744;DHT22;12052;53.478;10.182;2023-10-19T16:37:50;7.40;99.90
23744;DHT22;12052;53.478;10.182;2023-10-19T16:40:16;7.40;99.90
23744;DHT22;12052;53.478;10.182;2023-10-19T16:42:44;7.40;99.90
23744;DHT22;12052;53.478;10.182;2023-10-19T16:45:10;7.40;99.90
23744;DHT22;12052;53.478;10.182;2023-10-19T16:47:38;7.40;99.90
23744;DHT22;12052;53.478;10.182;2023-10-19T16:50:05;7.40;99.90
23744;DHT22;12052;53.478;10.182;2023-10-19T16:52:37;7.40;99.90
23744;DHT22;12052;53.478;10.182;2023-10-19T16:55:25;7.30;99.90
23744;DHT22;12052;53.478;10.182;2023-10-19T16:58:10;7.30;99.90
23744;DHT22;12052;53.478;10.182;2023-10-19T17:00:43;7.30;99.90
23744;DHT22;12052;53.478;10.182;2023-10-19T17:03:10;7.30;99.90
23744;DHT22;12052;53.478;10.182;2023-10-19T17:05:36;7.30;99.90
23744;DHT22;12052;53.478;10.182;2023-10-19T17:08:02;7.30;99.90
23744;DHT22;12052;53.478;10.182;2023-10-19T17:10:29;7.30;99.90
23744;DHT22;12052;53.478;10.182;2023-10-19T17:15:33;7.30;99.90
23744;DHT22;12052;53.478;10.182;2023-10-19T17:17:59;7.20;99.90
23744;DHT22;12052;53.478;10.182;2023-10-19T17:20:26;7.30;99.90
23744;DHT22;12052;53.478;10.182;2023-10-19T17:24:14;7.30;99.90
23744;DHT22;12052;53.478;10.182;2023-10-19T17:26:44;7.30;99.90
23744;DHT22;12052;53.478;10.182;2023-10-19T17:29:12;7.30;99.90
23744;DHT22;12052;53.478;10.182;2023-10-19T17:31:41;7.30;99.90
23744;DHT22;12052;53.478;10.182;2023-10-19T17:34:09;7.30;99.90
23744;DHT22;12052;53.478;10.182;2023-10-19T17:39:57;7.30;99.90
23744;DHT22;12052;53.478;10.182;2023-10-19T17:46:27;7.30;99.90
23744;DHT22;12052;53.478;10.182;2023-10-19T17:48:54;7.30;99.90
23744;DHT22;12052;53.478;10.182;2023-10-19T17:51:23;7.30;99.90
23744;DHT22;12052;53.478;10.182;2023-10-19T17:53:50;7.30;99.90
23744;DHT22;12052;53.478;10.182;2023-10-19T17:56:50;7.40;99.90
23744;DHT22;12052;53.478;10.182;2023-10-19T17:59:18;7.40;99.90
23744;DHT22;12052;53.478;10.182;2023-10-19T18:01:58;7.40;99.90
23744;DHT22;12052;53.478;10.182;2023-10-19T18:05:12;7.40;99.90
23744;DHT22;12052;53.478;10.182;2023-10-19T18:08:05;7.40;99.90
23744;DHT22;12052;53.478;10.182;2023-10-19T18:11:10;7.40;99.90
23744;DHT22;12052;53.478;10.182;2023-10-19T18:13:58;7.30;99.90
23744;DHT22;12052;53.478;10.182;2023-10-19T18:16:33;7.40;99.90
23744;DHT22;12052;53.478;10.182;2023-10-19T18:19:00;7.40;99.90
23744;DHT22;12052;53.478;10.182;2023-10-19T18:21:26;7.40;99.90
23744;DHT22;12052;53.478;10.182;2023-10-19T18:23:54;7.30;99.90
23744;DHT22;12052;53.478;10.182;2023-10-19T18:32:01;7.40;99.90
23744;DHT22;12052;53.478;10.182;2023-10-19T18:39:38;7.40;99.90
23744;DHT22;12052;53.478;10.182;2023-10-19T18:42:04;7.40;99.90
23744;DHT22;12052;53.478;10.182;2023-10-19T18:52:16;7.40;99.90
23744;DHT22;12052;53.478;10.182;2023-10-19T18:54:44;7.40;99.90
23744;DHT22;12052;53.478;10.182;2023-10-19T18:57:11;7.40;99.90